Time;durP1;ratioP1;P1;durP2;ratioP2;P2;SDS_P1;SDS_P2;PMS_P1;PMS_P2;Temp;Humidity;BMP_temperature;BMP_pressure;BME280_temperature;BME280_humidity;BME280_pressure;Samples;Min_cycle;Max_cycle;Signal;HPM_P1;HPM_P2
2023/03/08 00:01:13;;;;;;;21.23;11.48;;;22.20;99.90;;;;;;4956352;28;20027;-52
2023/03/08 00:03:40;;;;;;;20.38;11.75;;;22.20;99.90;;;;;;4956003;28;20038;-51
2023/03/08 00:06:11;;;;;;;18.77;11.98;;;22.20;99.90;;;;;;4955827;28;20100;-52
2023/03/08 00:08:37;;;;;;;21.55;12.80;;;22.20;99.90;;;;;;4956029;28;21173;-52
2023/03/08 00:11:11;;;;;;;23.73;12.00;;;22.10;99.90;;;;;;4955201;28;20389;-52
2023/03/08 00:13:37;;;;;;;18.73;12.45;;;22.10;99.90;;;;;;4955427;28;20023;-53
2023/03/08 00:16:05;;;;;;;16.73;11.35;;;22.20;99.90;;;;;;4955952;28;20043;-53
2023/03/08 00:18:31;;;;;;;22.02;12.52;;;22.20;99.90;;;;;;4954451;29;20023;-53
2023/03/08 00:21:05;;;;;;;15.93;11.82;;;22.10;99.90;;;;;;4955561;28;20399;-52
2023/03/08 00:23:31;;;;;;;18.00;11.52;;;22.20;99.90;;;;;;4958073;28;20035;-53
2023/03/08 00:25:57;;;;;;;18.20;12.35;;;22.10;99.90;;;;;;4955791;28;20024;-52
2023/03/08 00:28:23;;;;;;;16.05;11.50;;;22.10;99.90;;;;;;4955490;28;20023;-51
2023/03/08 00:31:06;;;;;;;16.20;11.77;;;22.10;99.90;;;;;;4955539;28;20023;-51
2023/03/08 00:33:32;;;;;;;48.65;13.07;;;22.10;99.90;;;;;;4955535;28;20295;-51
2023/03/08 00:36:06;;;;;;;16.00;11.25;;;22.10;99.90;;;;;;4955418;28;20031;-52
2023/03/08 00:38:34;;;;;;;18.60;11.95;;;22.10;99.90;;;;;;4955334;28;20416;-52
2023/03/08 00:41:01;;;;;;;14.82;10.55;;;22.10;99.90;;;;;;4954065;28;20478;-52
2023/03/08 00:43:27;;;;;;;15.88;11.73;;;22.10;99.90;;;;;;4953703;28;20035;-52
2023/03/08 00:45:53;;;;;;;17.95;12.52;;;22.10;99.90;;;;;;4955698;28;20051;-52
2023/03/08 00:48:20;;;;;;;16.35;11.55;;;22.10;99.90;;;;;;4955211;28;20034;-53
2023/03/08 00:50:46;;;;;;;20.00;11.82;;;22.10;99.90;;;;;;4954705;28;20036;-53
2023/03/08 00:53:12;;;;;;;17.92;10.60;;;22.10;99.90;;;;;;4955169;28;20027;-52
2023/03/08 00:55:38;;;;;;;17.20;11.98;;;22.10;99.90;;;;;;4955054;28;20161;-52
2023/03/08 00:58:04;;;;;;;19.48;11.68;;;22.10;99.90;;;;;;4955113;28;20054;-52
2023/03/08 01:00:30;;;;;;;16.17;11.05;;;22.10;99.90;;;;;;4955566;28;20075;-52
2023/03/08 01:02:57;;;;;;;18.45;11.43;;;22.10;99.90;;;;;;4954945;29;20035;-52
2023/03/08 01:05:23;;;;;;;16.02;10.52;;;22.10;99.90;;;;;;4955122;28;20027;-52
2023/03/08 01:07:49;;;;;;;17.67;10.98;;;22.00;99.90;;;;;;4954446;28;20042;-51
2023/03/08 01:10:15;;;;;;;16.77;11.05;;;22.10;99.90;;;;;;4954713;28;20028;-51
2023/03/08 01:12:40;;;;;;;15.38;10.55;;;22.10;99.90;;;;;;4954787;28;20066;-51
2023/03/08 01:15:07;;;;;;;15.93;10.48;;;22.10;99.90;;;;;;4953472;28;20027;-51
2023/03/08 01:17:32;;;;;;;14.35;10.07;;;22.10;99.90;;;;;;4954308;28;20051;-50
2023/03/08 01:19:58;;;;;;;15.75;10.93;;;22.00;99.90;;;;;;4954763;28;20523;-52
2023/03/08 01:22:24;;;;;;;13.60;9.90;;;22.00;99.90;;;;;;4954285;28;20027;-52
2023/03/08 01:24:50;;;;;;;16.50;10.90;;;22.00;99.90;;;;;;4954754;29;20113;-52
2023/03/08 01:27:16;;;;;;;13.60;10.20;;;22.00;99.90;;;;;;4954726;28;20031;-51
2023/03/08 01:29:43;;;;;;;13.88;10.00;;;22.00;99.90;;;;;;4954425;28;20069;-52
2023/03/08 01:32:09;;;;;;;16.65;9.98;;;22.00;99.90;;;;;;4941888;29;20030;-52
2023/03/08 01:34:36;;;;;;;16.90;10.30;;;22.00;99.90;;;;;;4954550;28;20027;-52
2023/03/08 01:37:02;;;;;;;14.63;10.63;;;22.00;99.90;;;;;;4954375;28;20056;-52
2023/03/08 01:39:28;;;;;;;16.67;9.93;;;22.00;99.90;;;;;;4954447;28;20062;-50
2023/03/08 01:41:53;;;;;;;15.75;10.85;;;22.00;99.90;;;;;;4954488;28;20361;-49
2023/03/08 01:44:23;;;;;;;17.33;11.43;;;22.00;99.90;;;;;;4953939;29;20032;-52
2023/03/08 01:46:49;;;;;;;19.48;10.70;;;22.00;99.90;;;;;;4953058;28;20074;-54
2023/03/08 01:49:23;;;;;;;18.95;11.15;;;22.00;99.90;;;;;;4954786;28;20420;-52
2023/03/08 01:51:59;;;;;;;16.23;10.38;;;22.00;99.90;;;;;;4953906;28;20067;-52
2023/03/08 01:54:34;;;;;;;15.57;10.02;;;22.00;99.90;;;;;;4954197;28;20051;-52
2023/03/08 01:57:34;;;;;;;16.38;10.90;;;22.00;99.90;;;;;;4954154;28;20033;-51
2023/03/08 02:00:14;;;;;;;13.93;9.57;;;21.90;99.90;;;;;;4967525;23;20054;-51
2023/03/08 02:02:47;;;;;;;14.43;9.20;;;22.00;99.90;;;;;;4973147;28;20110;-51
2023/03/08 02:05:15;;;;;;;14.52;10.30;;;21.90;99.90;;;;;;4973514;28;20479;-51
2023/03/08 02:07:40;;;;;;;14.32;9.95;;;21.90;99.90;;;;;;4971817;28;20023;-52
2023/03/08 02:10:07;;;;;;;14.02;9.65;;;22.00;99.90;;;;;;4973472;28;20162;-52
2023/03/08 02:12:34;;;;;;;13.00;9.50;;;21.90;99.90;;;;;;4973075;28;20018;-51
2023/03/08 02:15:03;;;;;;;14.55;9.10;;;21.90;99.90;;;;;;4972887;28;20276;-54
2023/03/08 02:17:30;;;;;;;16.13;9.60;;;21.90;99.90;;;;;;4973088;28;20023;-52
2023/03/08 02:20:17;;;;;;;13.18;9.20;;;21.90;99.90;;;;;;4973137;28;20174;-53
2023/03/08 02:22:44;;;;;;;11.77;8.95;;;21.90;99.90;;;;;;4968361;28;20049;-52
2023/03/08 02:25:21;;;;;;;13.13;9.20;;;21.90;99.90;;;;;;4977099;28;20035;-50
2023/03/08 02:27:48;;;;;;;12.07;8.87;;;21.90;99.90;;;;;;4977404;28;20379;-53
2023/03/08 02:30:17;;;;;;;14.45;9.43;;;21.90;99.90;;;;;;4976702;28;20260;-52
2023/03/08 02:32:43;;;;;;;14.20;9.30;;;21.90;99.90;;;;;;4977081;28;20121;-53
2023/03/08 02:35:09;;;;;;;14.25;8.40;;;21.90;99.90;;;;;;4976950;28;20424;-53
2023/03/08 02:37:35;;;;;;;13.30;9.32;;;21.90;99.90;;;;;;4976635;28;20037;-52
2023/03/08 02:40:01;;;;;;;17.30;9.23;;;21.90;99.90;;;;;;4976793;28;20093;-53
2023/03/08 02:42:26;;;;;;;18.25;9.18;;;21.90;99.90;;;;;;4976902;28;20039;-52
2023/03/08 02:44:52;;;;;;;15.45;9.00;;;21.90;99.90;;;;;;4974968;28;20498;-50
2023/03/08 02:47:18;;;;;;;13.02;8.55;;;21.90;99.90;;;;;;4977111;28;20077;-52
2023/03/08 02:49:44;;;;;;;14.05;9.05;;;21.90;99.90;;;;;;4976684;28;20038;-51
2023/03/08 02:52:09;;;;;;;13.05;8.75;;;21.80;99.90;;;;;;4976498;28;20029;-52
2023/03/08 02:54:35;;;;;;;13.55;8.95;;;21.80;99.90;;;;;;4976583;28;20468;-52
2023/03/08 02:57:01;;;;;;;16.65;9.80;;;21.80;99.90;;;;;;4976772;28;20041;-54
2023/03/08 02:59:27;;;;;;;12.05;8.27;;;21.80;99.90;;;;;;4986280;23;20037;-49
2023/03/08 03:01:52;;;;;;;12.88;8.25;;;21.80;99.90;;;;;;4971566;28;20039;-50
2023/03/08 03:04:18;;;;;;;14.40;8.27;;;21.80;99.90;;;;;;4956889;28;20464;-51
2023/03/08 03:06:44;;;;;;;12.32;8.45;;;21.80;99.90;;;;;;4956662;29;20115;-50
2023/03/08 03:09:11;;;;;;;10.13;7.03;;;21.80;99.90;;;;;;4956940;28;20062;-49
2023/03/08 03:11:39;;;;;;;11.82;7.60;;;21.80;99.90;;;;;;4956330;28;20019;-50
2023/03/08 03:14:05;;;;;;;13.38;8.02;;;21.80;99.90;;;;;;4956570;28;20020;-50
2023/03/08 03:16:31;;;;;;;12.65;7.47;;;21.80;99.90;;;;;;4956687;28;20034;-50
2023/03/08 03:18:57;;;;;;;12.65;7.90;;;21.80;99.90;;;;;;4956565;28;20023;-50
2023/03/08 03:21:23;;;;;;;13.18;7.63;;;21.80;99.90;;;;;;4956656;28;20023;-50
2023/03/08 03:23:49;;;;;;;10.82;7.47;;;21.80;99.90;;;;;;4957066;28;20046;-50
2023/03/08 03:26:20;;;;;;;10.52;7.60;;;21.70;99.90;;;;;;4956633;28;20082;-50
2023/03/08 03:28:46;;;;;;;11.85;7.50;;;21.80;99.90;;;;;;4956804;28;20051;-50
2023/03/08 03:31:22;;;;;;;10.63;7.18;;;21.70;99.90;;;;;;4956687;28;20065;-50
2023/03/08 03:33:49;;;;;;;14.10;8.57;;;21.70;99.90;;;;;;4956613;28;20026;-50
2023/03/08 03:36:17;;;;;;;10.88;7.60;;;21.70;99.90;;;;;;4956573;28;20023;-50
2023/03/08 03:38:43;;;;;;;14.38;8.43;;;21.70;99.90;;;;;;4955262;29;20082;-50
2023/03/08 03:41:11;;;;;;;11.48;7.88;;;21.70;99.90;;;;;;4956638;28;20114;-50
2023/03/08 03:43:38;;;;;;;11.52;7.97;;;21.70;99.90;;;;;;4954456;28;20401;-50
2023/03/08 03:46:06;;;;;;;11.82;8.15;;;21.60;99.90;;;;;;4950159;29;20023;-50
2023/03/08 03:48:34;;;;;;;12.70;7.93;;;21.60;99.90;;;;;;4956426;28;20118;-50
2023/03/08 03:51:03;;;;;;;10.98;6.95;;;21.70;99.90;;;;;;4956397;28;20019;-50
2023/03/08 03:53:30;;;;;;;10.82;7.03;;;21.60;99.90;;;;;;4956410;28;20027;-50
2023/03/08 03:56:02;;;;;;;10.50;7.47;;;21.70;99.90;;;;;;4943563;29;20076;-50
2023/03/08 03:58:28;;;;;;;12.15;7.57;;;21.60;99.90;;;;;;4956095;28;20262;-50
2023/03/08 04:00:55;;;;;;;13.45;8.20;;;21.60;99.90;;;;;;4956737;28;20055;-50
2023/03/08 04:03:21;;;;;;;10.35;7.13;;;21.60;99.90;;;;;;4956239;28;20034;-49
2023/03/08 04:05:46;;;;;;;9.55;6.82;;;21.50;99.90;;;;;;4954724;28;20019;-50
2023/03/08 04:08:12;;;;;;;8.77;6.40;;;21.60;99.90;;;;;;4955967;28;20031;-50
2023/03/08 04:10:38;;;;;;;10.35;6.93;;;21.60;99.90;;;;;;4955929;28;20019;-50
2023/03/08 04:13:04;;;;;;;11.25;7.15;;;21.60;99.90;;;;;;4954506;29;20023;-50
2023/03/08 04:15:30;;;;;;;10.93;7.63;;;21.50;99.90;;;;;;4955572;28;20019;-50
2023/03/08 04:17:56;;;;;;;10.18;6.70;;;21.50;99.90;;;;;;4953268;28;20027;-50
2023/03/08 04:20:23;;;;;;;9.15;6.22;;;21.50;99.90;;;;;;4935455;29;20039;-50
2023/03/08 04:22:49;;;;;;;10.40;6.78;;;21.50;99.90;;;;;;4950451;29;20087;-49
2023/03/08 04:25:14;;;;;;;9.70;6.50;;;21.50;99.90;;;;;;4936677;29;20594;-50
2023/03/08 04:27:40;;;;;;;10.30;6.95;;;21.50;99.90;;;;;;4939945;29;20109;-50
2023/03/08 04:30:07;;;;;;;9.20;6.38;;;21.50;99.90;;;;;;4949388;28;20341;-50
2023/03/08 04:32:33;;;;;;;9.13;6.00;;;21.50;99.90;;;;;;4946286;28;20420;-50
2023/03/08 04:34:59;;;;;;;8.43;6.18;;;21.50;99.90;;;;;;4955482;28;20126;-50
2023/03/08 04:37:25;;;;;;;9.48;6.43;;;21.50;99.90;;;;;;4955619;28;20167;-49
2023/03/08 04:39:50;;;;;;;9.50;6.13;;;21.40;99.90;;;;;;4955186;28;20102;-50
2023/03/08 04:42:16;;;;;;;10.10;6.30;;;21.40;99.90;;;;;;4955234;28;20522;-50
2023/03/08 04:44:42;;;;;;;10.00;6.47;;;21.40;99.90;;;;;;4954602;28;20090;-50
2023/03/08 04:47:08;;;;;;;11.23;6.97;;;21.40;99.90;;;;;;4970349;28;20050;-50
2023/03/08 04:49:34;;;;;;;9.90;6.47;;;21.40;99.90;;;;;;4955350;28;20029;-50
2023/03/08 04:51:59;;;;;;;9.98;7.07;;;21.40;99.90;;;;;;4955448;28;20454;-51
2023/03/08 04:54:26;;;;;;;8.60;5.75;;;21.40;99.90;;;;;;4970181;28;20110;-51
2023/03/08 04:56:52;;;;;;;9.73;6.20;;;21.40;99.90;;;;;;4954959;28;20031;-50
2023/03/08 04:59:17;;;;;;;8.90;6.40;;;21.30;99.90;;;;;;4955727;28;20146;-50
2023/03/08 05:01:43;;;;;;;7.85;6.05;;;21.40;99.90;;;;;;4954745;28;20055;-50
2023/03/08 05:04:10;;;;;;;9.23;6.57;;;21.40;99.90;;;;;;4954939;28;20067;-50
2023/03/08 05:06:36;;;;;;;9.40;6.20;;;21.30;99.90;;;;;;4954900;28;20042;-51
2023/03/08 05:09:02;;;;;;;11.48;6.78;;;21.30;99.90;;;;;;4954654;28;20265;-51
2023/03/08 05:11:28;;;;;;;8.60;6.00;;;21.30;99.90;;;;;;4955130;28;20448;-50
2023/03/08 05:13:56;;;;;;;8.20;5.30;;;21.30;99.90;;;;;;4954837;28;20471;-50
2023/03/08 05:16:23;;;;;;;7.32;5.35;;;21.30;99.90;;;;;;4954853;28;20055;-50
2023/03/08 05:18:48;;;;;;;8.57;5.43;;;21.30;99.90;;;;;;4954721;28;20065;-50
2023/03/08 05:21:20;;;;;;;10.18;6.55;;;21.30;99.90;;;;;;4954666;28;20067;-50
2023/03/08 05:23:46;;;;;;;7.80;5.30;;;21.30;99.90;;;;;;4954509;28;20035;-50
2023/03/08 05:26:14;;;;;;;10.85;6.18;;;21.30;99.90;;;;;;4954711;28;20055;-50
2023/03/08 05:28:40;;;;;;;;;;;21.30;99.90;;;;;;4954946;28;20023;-51
2023/03/08 05:31:18;;;;;;;7.30;5.45;;;21.30;99.90;;;;;;4954624;28;19906;-50
2023/03/08 05:33:45;;;;;;;7.30;5.28;;;21.30;99.90;;;;;;4954522;28;20396;-50
2023/03/08 05:36:12;;;;;;;8.63;5.75;;;21.30;99.90;;;;;;4954620;28;20054;-50
2023/03/08 05:38:38;;;;;;;8.87;5.57;;;21.20;99.90;;;;;;4954593;28;20062;-50
2023/03/08 05:41:06;;;;;;;10.75;6.50;;;21.30;99.90;;;;;;4954440;28;20066;-51
2023/03/08 05:43:33;;;;;;;7.63;5.40;;;21.20;99.90;;;;;;4954411;28;20042;-50
2023/03/08 05:46:07;;;;;;;7.88;5.90;;;21.20;99.90;;;;;;4954522;28;20030;-50
2023/03/08 05:48:35;;;;;;;9.93;6.13;;;21.20;99.90;;;;;;4954286;28;20074;-50
2023/03/08 05:51:05;;;;;;;6.95;5.63;;;21.20;99.90;;;;;;4953118;28;20190;-50
2023/03/08 05:53:31;;;;;;;9.77;6.43;;;21.20;99.90;;;;;;4954193;28;20027;-50
2023/03/08 05:56:08;;;;;;;10.32;6.20;;;21.20;99.90;;;;;;4952756;28;20502;-50
2023/03/08 05:58:34;;;;;;;8.52;5.88;;;21.20;99.90;;;;;;4953898;28;20023;-50
2023/03/08 06:01:18;;;;;;;9.93;6.18;;;21.20;99.90;;;;;;4953970;28;20122;-50
2023/03/08 06:03:48;;;;;;;8.85;5.70;;;21.20;99.90;;;;;;4953994;28;20114;-50
2023/03/08 06:06:15;;;;;;;8.15;5.30;;;21.20;99.90;;;;;;4953963;28;20038;-50
2023/03/08 06:08:41;;;;;;;8.50;5.88;;;21.20;99.90;;;;;;4952796;28;20062;-50
2023/03/08 06:11:07;;;;;;;8.43;5.78;;;21.20;99.90;;;;;;4953922;28;20379;-50
2023/03/08 06:13:33;;;;;;;9.38;5.90;;;21.20;99.90;;;;;;4953955;28;20020;-50
2023/03/08 06:16:00;;;;;;;9.52;5.75;;;21.20;99.90;;;;;;4953976;28;20492;-50
2023/03/08 06:18:26;;;;;;;7.40;5.60;;;21.20;99.90;;;;;;4953883;28;20027;-51
2023/03/08 06:21:00;;;;;;;6.93;4.93;;;21.10;99.90;;;;;;4954000;28;20372;-50
2023/03/08 06:23:28;;;;;;;7.65;5.20;;;21.20;99.90;;;;;;4954026;28;20043;-50
2023/03/08 06:25:53;;;;;;;;;;;21.10;99.90;;;;;;4953275;29;20039;-50
2023/03/08 06:28:19;;;;;;;6.82;4.80;;;21.10;99.90;;;;;;4953912;28;19971;-50
2023/03/08 06:30:50;;;;;;;9.43;5.55;;;21.10;99.90;;;;;;4953706;28;20082;-50
2023/03/08 06:33:21;;;;;;;8.35;5.22;;;21.10;99.90;;;;;;4953783;28;20028;-50
2023/03/08 06:36:01;;;;;;;7.63;5.45;;;21.10;99.90;;;;;;4953760;28;20031;-50
2023/03/08 06:38:28;;;;;;;9.48;5.75;;;21.10;99.90;;;;;;4953869;28;20107;-50
2023/03/08 06:40:54;;;;;;;9.13;5.00;;;21.10;99.90;;;;;;4953797;28;20420;-50
2023/03/08 06:43:20;;;;;;;9.38;5.22;;;21.10;99.90;;;;;;4952261;29;20094;-50
2023/03/08 06:45:46;;;;;;;8.00;4.85;;;21.10;99.90;;;;;;4953699;28;20031;-50
2023/03/08 06:48:13;;;;;;;8.15;4.82;;;21.10;99.90;;;;;;4953385;28;20078;-51
2023/03/08 06:50:39;;;;;;;6.47;4.88;;;21.10;99.90;;;;;;4953607;28;20027;-50
2023/03/08 06:53:05;;;;;;;8.65;4.97;;;21.10;99.90;;;;;;4953589;28;20078;-50
2023/03/08 06:55:33;;;;;;;12.05;5.65;;;21.10;99.90;;;;;;4953807;28;20499;-50
2023/03/08 06:57:59;;;;;;;7.43;4.90;;;21.10;99.90;;;;;;4953849;28;20031;-50
2023/03/08 07:00:25;;;;;;;6.75;5.07;;;21.10;99.90;;;;;;4953152;28;20070;-50
2023/03/08 07:02:52;;;;;;;7.78;4.55;;;21.10;99.90;;;;;;4953350;28;20094;-50
2023/03/08 07:05:18;;;;;;;11.65;5.30;;;21.10;99.90;;;;;;4953685;28;20452;-50
2023/03/08 07:07:44;;;;;;;6.93;4.50;;;21.10;99.90;;;;;;4953944;28;20063;-50
2023/03/08 07:10:13;;;;;;;8.43;4.28;;;21.10;99.90;;;;;;4972021;28;20380;-50
2023/03/08 07:12:42;;;;;;;8.13;5.05;;;21.10;99.90;;;;;;4957192;28;20073;-50
2023/03/08 07:15:13;;;;;;;7.20;4.88;;;21.10;99.90;;;;;;4957203;28;20054;-50
2023/03/08 07:17:43;;;;;;;6.72;4.18;;;21.10;99.90;;;;;;4956998;28;20019;-50
2023/03/08 07:20:11;;;;;;;7.03;5.00;;;21.10;99.90;;;;;;4956914;28;20549;-50
2023/03/08 07:22:38;;;;;;;9.90;4.85;;;21.10;99.90;;;;;;4956797;28;20035;-50
2023/03/08 07:25:04;;;;;;;7.38;4.88;;;21.10;99.90;;;;;;4956806;28;20020;-50
2023/03/08 07:27:29;;;;;;;6.95;4.72;;;21.10;99.90;;;;;;4956963;28;20380;-52
2023/03/08 07:29:55;;;;;;;7.32;4.57;;;21.10;99.90;;;;;;4956940;28;20035;-50
2023/03/08 07:32:22;;;;;;;7.97;4.95;;;21.10;99.90;;;;;;4971670;28;20030;-50
2023/03/08 07:34:48;;;;;;;7.87;4.93;;;21.10;99.90;;;;;;4956799;28;20028;-50
2023/03/08 07:37:15;;;;;;;6.57;4.60;;;21.10;99.90;;;;;;4956624;29;20079;-50
2023/03/08 07:39:41;;;;;;;7.03;4.95;;;21.10;99.90;;;;;;4956521;28;20067;-50
2023/03/08 07:42:07;;;;;;;6.40;4.80;;;21.10;99.90;;;;;;4956508;28;20035;-50
2023/03/08 07:44:33;;;;;;;8.55;4.45;;;21.10;99.90;;;;;;4956633;28;20054;-50
2023/03/08 07:46:59;;;;;;;6.50;4.38;;;21.20;99.90;;;;;;4956394;28;20023;-50
2023/03/08 07:49:24;;;;;;;7.30;5.22;;;21.20;99.90;;;;;;4956372;29;20032;-50
2023/03/08 07:51:52;;;;;;;7.55;4.85;;;21.20;99.90;;;;;;4956160;28;20032;-50
2023/03/08 07:54:17;;;;;;;9.57;5.13;;;21.20;99.90;;;;;;4956147;28;20047;-49
2023/03/08 07:56:43;;;;;;;6.80;4.85;;;21.20;99.90;;;;;;4956184;28;20067;-50
2023/03/08 07:59:09;;;;;;;7.32;4.32;;;21.20;99.90;;;;;;4956191;28;20027;-50
2023/03/08 08:01:35;;;;;;;7.95;4.80;;;21.20;99.90;;;;;;4954712;28;20059;-50
2023/03/08 08:04:01;;;;;;;6.65;4.43;;;21.20;99.90;;;;;;4956160;28;20035;-50
2023/03/08 08:06:27;;;;;;;6.85;4.43;;;21.20;99.90;;;;;;4956105;28;20038;-50
2023/03/08 08:08:56;;;;;;;6.85;4.50;;;21.20;99.90;;;;;;4955979;28;20083;-50
2023/03/08 08:11:22;;;;;;;8.65;5.53;;;21.20;99.90;;;;;;4956103;28;20016;-50
2023/03/08 08:13:48;;;;;;;8.07;4.50;;;21.30;99.90;;;;;;4955920;28;20031;-50
2023/03/08 08:16:15;;;;;;;6.72;4.65;;;21.30;99.90;;;;;;4955865;28;20034;-50
2023/03/08 08:18:41;;;;;;;9.95;4.28;;;21.30;99.90;;;;;;4955883;28;20600;-50
2023/03/08 08:21:12;;;;;;;8.40;4.65;;;21.30;99.90;;;;;;4955074;28;20054;-50
2023/03/08 08:23:39;;;;;;;7.05;4.07;;;21.30;99.90;;;;;;4955732;28;20038;-50
2023/03/08 08:26:13;;;;;;;8.40;5.15;;;21.30;99.90;;;;;;4956084;28;20023;-50
2023/03/08 08:28:41;;;;;;;6.25;4.07;;;21.30;99.90;;;;;;4955579;28;20023;-50
2023/03/08 08:31:08;;;;;;;;;;;21.30;99.90;;;;;;4956134;28;20027;-50
2023/03/08 08:33:35;;;;;;;6.05;4.00;;;21.40;99.90;;;;;;4955643;28;19912;-50
2023/03/08 08:36:04;;;;;;;8.30;4.18;;;21.40;99.90;;;;;;4955485;28;20054;-50
2023/03/08 08:38:30;;;;;;;7.55;4.60;;;21.40;99.90;;;;;;4955214;28;20019;-50
2023/03/08 08:41:06;;;;;;;6.40;4.50;;;21.40;99.90;;;;;;4955458;28;20026;-50
2023/03/08 08:43:33;;;;;;;7.40;4.65;;;21.40;99.90;;;;;;4955080;28;20050;-50
2023/03/08 08:45:59;;;;;;;7.13;4.10;;;21.40;99.90;;;;;;4955322;28;20065;-50
2023/03/08 08:48:27;;;;;;;7.18;4.30;;;21.40;99.90;;;;;;4955102;28;20380;-50
2023/03/08 08:50:53;;;;;;;6.88;4.00;;;21.40;99.90;;;;;;4955328;28;20027;-50
2023/03/08 08:53:20;;;;;;;7.00;3.75;;;21.40;99.90;;;;;;4955258;28;20082;-50
2023/03/08 08:55:46;;;;;;;8.30;4.63;;;21.40;99.90;;;;;;4955321;28;20078;-50
2023/03/08 08:58:13;;;;;;;6.82;4.45;;;21.40;99.90;;;;;;4955059;28;20113;-49
2023/03/08 09:00:39;;;;;;;8.65;5.28;;;21.40;99.90;;;;;;4955195;28;20039;-50
2023/03/08 09:03:06;;;;;;;11.05;4.75;;;21.40;99.90;;;;;;4954941;28;20058;-50
2023/03/08 09:05:33;;;;;;;6.93;4.40;;;21.40;99.90;;;;;;4955086;28;20024;-50
2023/03/08 09:08:00;;;;;;;6.88;4.53;;;21.40;99.90;;;;;;4954837;28;20031;-50
2023/03/08 09:10:31;;;;;;;7.85;4.35;;;21.40;99.90;;;;;;4954946;28;20023;-50
2023/03/08 09:13:00;;;;;;;6.93;4.25;;;21.40;99.90;;;;;;4954757;28;20042;-50
2023/03/08 09:15:26;;;;;;;9.75;4.88;;;21.50;99.90;;;;;;4954718;28;20019;-49
2023/03/08 09:17:51;;;;;;;6.13;4.88;;;21.50;99.90;;;;;;4954744;28;20082;-50
2023/03/08 09:20:18;;;;;;;7.40;4.75;;;21.50;99.90;;;;;;4954450;28;20023;-50
2023/03/08 09:22:44;;;;;;;10.23;4.55;;;21.50;99.90;;;;;;4954676;28;20046;-50
2023/03/08 09:25:11;;;;;;;8.35;4.72;;;21.50;99.90;;;;;;4954663;28;20031;-50
2023/03/08 09:27:38;;;;;;;7.70;4.95;;;21.50;99.90;;;;;;4954635;28;20030;-50
2023/03/08 09:30:07;;;;;;;8.45;5.35;;;21.50;99.90;;;;;;4954284;28;20476;-50
2023/03/08 09:32:34;;;;;;;9.13;4.68;;;21.50;99.90;;;;;;4954683;28;20379;-50
2023/03/08 09:35:00;;;;;;;8.30;5.00;;;21.50;99.90;;;;;;4954438;28;20026;-50
2023/03/08 09:37:26;;;;;;;10.27;4.97;;;21.60;99.90;;;;;;4954516;28;20031;-50
2023/03/08 09:39:52;;;;;;;7.18;5.03;;;21.60;99.90;;;;;;4969212;28;20122;-50
2023/03/08 09:42:26;;;;;;;9.77;5.53;;;21.60;99.90;;;;;;4953618;28;20114;-49
2023/03/08 09:45:23;;;;;;;10.75;5.32;;;21.60;99.90;;;;;;4952667;29;20349;-50
2023/03/08 09:48:17;;;;;;;9.05;5.25;;;21.60;99.90;;;;;;4953768;29;20030;-50
2023/03/08 09:50:48;;;;;;;9.38;5.60;;;21.60;99.90;;;;;;4952360;29;20031;-50
2023/03/08 09:53:33;;;;;;;8.95;5.50;;;21.70;99.90;;;;;;4954362;28;20364;-49
2023/03/08 09:56:06;;;;;;;8.65;4.85;;;21.70;99.90;;;;;;4953434;28;20034;-50
2023/03/08 09:58:48;;;;;;;14.30;5.10;;;21.70;99.90;;;;;;4953922;28;20027;-50
2023/03/08 10:01:19;;;;;;;8.98;4.70;;;21.70;99.90;;;;;;4953631;28;20452;-50
2023/03/08 10:04:15;;;;;;;8.88;4.65;;;21.80;99.90;;;;;;4954085;28;20503;-49
2023/03/08 10:06:47;;;;;;;7.68;3.95;;;21.80;99.90;;;;;;4943080;29;20023;-48
2023/03/08 10:09:21;;;;;;;9.88;4.35;;;21.90;99.90;;;;;;4968660;28;20031;-50
2023/03/08 10:12:19;;;;;;;9.82;3.03;;;21.90;99.90;;;;;;4953489;28;20170;-49
2023/03/08 10:14:53;;;;;;;8.77;2.92;;;21.90;99.90;;;;;;4950426;29;20432;-50
2023/03/08 10:17:23;;;;;;;7.28;2.47;;;22.00;99.90;;;;;;4953052;28;20042;-50
2023/03/08 10:19:57;;;;;;;5.30;2.45;;;22.00;99.90;;;;;;4952993;28;20027;-49
2023/03/08 10:22:33;;;;;;;4.47;1.90;;;22.10;99.90;;;;;;4952221;29;20031;-49
2023/03/08 10:25:23;;;;;;;2.70;1.20;;;22.10;99.90;;;;;;4953003;29;20443;-49
2023/03/08 10:27:53;;;;;;;4.47;1.80;;;22.10;99.90;;;;;;4952341;28;20027;-49
2023/03/08 10:30:21;;;;;;;1.95;1.38;;;22.20;99.90;;;;;;4944077;28;20039;-46
2023/03/08 10:32:49;;;;;;;4.55;1.77;;;22.20;99.90;;;;;;4960743;28;20035;-47
2023/03/08 10:35:16;;;;;;;5.55;2.10;;;22.20;99.90;;;;;;4946329;29;20042;-47
2023/03/08 10:37:48;;;;;;;3.42;1.52;;;22.20;99.90;;;;;;4949872;28;20110;-49
2023/03/08 10:40:20;;;;;;;4.93;2.25;;;22.30;99.90;;;;;;4950372;29;20059;-48
2023/03/08 10:42:58;;;;;;;10.15;3.05;;;22.30;99.90;;;;;;4940505;28;20120;-48
2023/03/08 10:45:26;;;;;;;5.10;1.95;;;22.30;99.90;;;;;;4950029;28;20027;-48
2023/03/08 10:48:01;;;;;;;3.92;2.13;;;22.40;99.90;;;;;;4938888;29;20566;-47
2023/03/08 10:50:36;;;;;;;5.22;2.22;;;22.40;99.90;;;;;;4943167;29;20131;-48
2023/03/08 10:53:10;;;;;;;4.65;2.25;;;22.40;99.90;;;;;;4951715;29;20491;-47
2023/03/08 10:55:45;;;;;;;4.35;2.08;;;22.40;99.90;;;;;;4948794;28;20484;-48
2023/03/08 10:58:36;;;;;;;3.10;2.10;;;22.50;99.90;;;;;;4945008;29;20149;-48
2023/03/08 11:01:21;;;;;;;4.05;2.40;;;22.50;99.90;;;;;;4948340;28;20162;-47
2023/03/08 11:03:59;;;;;;;5.10;2.08;;;22.50;99.90;;;;;;4953174;28;20118;-48
2023/03/08 11:06:25;;;;;;;6.72;2.63;;;22.60;99.90;;;;;;4952124;28;20051;-48
2023/03/08 11:08:58;;;;;;;3.53;2.22;;;22.60;99.90;;;;;;4943392;29;20066;-49
2023/03/08 11:11:25;;;;;;;6.57;3.08;;;22.60;99.90;;;;;;4942646;29;20539;-49
2023/03/08 11:13:52;;;;;;;11.27;3.13;;;22.60;99.90;;;;;;4946453;28;20031;-49
2023/03/08 11:16:27;;;;;;;7.60;3.20;;;22.70;99.90;;;;;;4952525;28;20098;-48
2023/03/08 11:19:23;;;;;;;4.55;2.95;;;22.70;99.90;;;;;;4951687;29;20027;-48
2023/03/08 11:22:13;;;;;;;7.43;2.85;;;22.70;99.90;;;;;;4947657;28;20460;-46
2023/03/08 11:25:06;;;;;;;7.55;2.70;;;22.80;99.90;;;;;;4948907;29;20048;-47
2023/03/08 11:28:07;;;;;;;8.02;2.80;;;22.80;99.90;;;;;;4951163;29;20431;-47
2023/03/08 11:31:04;;;;;;;4.97;2.70;;;22.80;99.90;;;;;;4946255;28;20042;-46
2023/03/08 11:34:04;;;;;;;5.40;2.65;;;22.90;99.90;;;;;;4959178;28;20028;-47
2023/03/08 11:36:45;;;;;;;4.28;2.40;;;22.90;99.90;;;;;;4941805;29;20079;-47
2023/03/08 11:39:24;;;;;;;4.72;2.58;;;22.90;99.90;;;;;;4944013;29;20054;-48
2023/03/08 11:42:16;;;;;;;10.27;2.63;;;23.00;99.90;;;;;;4948815;29;20047;-46
2023/03/08 11:44:47;;;;;;;4.07;2.70;;;23.00;99.90;;;;;;4944744;28;20512;-47
2023/03/08 11:47:32;;;;;;;5.97;2.50;;;23.00;99.90;;;;;;4943238;28;20468;-46
2023/03/08 11:50:42;;;;;;;4.68;2.72;;;23.00;99.90;;;;;;4952931;28;20082;-47
2023/03/08 11:53:38;;;;;;;4.43;2.75;;;23.10;99.90;;;;;;4916510;29;20499;-46
2023/03/08 11:56:25;;;;;;;5.95;3.00;;;23.10;99.90;;;;;;4945632;28;20477;-47
2023/03/08 11:59:04;;;;;;;4.72;3.17;;;23.10;99.90;;;;;;4941268;28;20023;-47
2023/03/08 12:02:16;;;;;;;4.97;2.72;;;23.10;99.90;;;;;;4939189;29;20452;-48
2023/03/08 12:04:52;;;;;;;7.20;2.80;;;23.20;99.90;;;;;;4946708;29;20058;-49
2023/03/08 12:07:38;;;;;;;5.13;2.53;;;23.20;99.90;;;;;;4949693;29;20062;-48
2023/03/08 12:10:33;;;;;;;8.15;2.67;;;23.30;99.90;;;;;;4948324;28;20019;-48
2023/03/08 12:13:02;;;;;;;10.35;3.58;;;23.30;99.90;;;;;;4942829;28;20027;-48
2023/03/08 12:15:46;;;;;;;11.75;3.00;;;23.40;99.90;;;;;;4941590;28;20465;-48
2023/03/08 12:18:34;;;;;;;8.77;3.92;;;23.40;99.90;;;;;;4952203;28;20443;-48
2023/03/08 12:21:24;;;;;;;12.25;3.88;;;23.40;99.90;;;;;;4947636;29;20504;-48
2023/03/08 12:24:08;;;;;;;6.10;2.78;;;23.40;99.90;;;;;;4949686;29;20103;-49
2023/03/08 12:26:48;;;;;;;14.50;3.42;;;23.40;99.90;;;;;;4945974;29;20423;-49
2023/03/08 12:29:36;;;;;;;10.77;3.47;;;23.40;99.90;;;;;;4948429;29;20046;-48
2023/03/08 12:32:04;;;;;;;7.18;2.67;;;23.50;99.90;;;;;;4947010;28;20530;-49
2023/03/08 12:34:36;;;;;;;8.77;4.05;;;23.50;99.90;;;;;;4966899;28;20031;-48
2023/03/08 12:37:25;;;;;;;8.90;2.80;;;23.50;99.90;;;;;;4951545;28;20027;-48
2023/03/08 12:39:58;;;;;;;3.83;2.45;;;23.60;99.90;;;;;;4945875;28;20050;-48
2023/03/08 12:42:31;;;;;;;5.50;2.17;;;23.60;99.90;;;;;;4940810;29;20034;-48
2023/03/08 12:45:19;;;;;;;13.93;3.35;;;23.60;99.90;;;;;;4942661;28;20398;-48
2023/03/08 12:48:14;;;;;;;4.45;2.33;;;23.60;99.90;;;;;;4946196;28;20496;-49
2023/03/08 12:50:43;;;;;;;5.53;3.05;;;23.60;99.90;;;;;;4952070;28;20035;-48
2023/03/08 12:53:24;;;;;;;6.07;3.08;;;23.70;99.90;;;;;;4938240;29;20026;-48
2023/03/08 12:56:08;;;;;;;7.47;2.72;;;23.70;99.90;;;;;;4949646;28;20086;-48
2023/03/08 12:58:47;;;;;;;8.98;2.53;;;23.70;99.90;;;;;;4950007;29;20030;-49
2023/03/08 13:01:37;;;;;;;5.53;2.75;;;23.70;99.90;;;;;;4941199;29;20043;-48